sensor_id;sensor_type;location;lat;lon;timestamp;P1;durP1;ratioP1;P2;durP2;ratioP2
60641;SDS011;46837;52.446;-1.930;2023-05-21T00:00:10;12.92;;;4.78;;
60641;SDS011;46837;52.446;-1.930;2023-05-21T00:01:07;3.96;;;3.08;;
60641;SDS011;46837;52.446;-1.930;2023-05-21T00:02:07;11.70;;;3.88;;
60641;SDS011;46837;52.446;-1.930;2023-05-21T00:03:11;6.38;;;3.58;;
60641;SDS011;46837;52.446;-1.930;2023-05-21T00:04:07;7.42;;;3.86;;
60641;SDS011;46837;52.446;-1.930;2023-05-21T00:05:07;5.46;;;3.00;;
60641;SDS011;46837;52.446;-1.930;2023-05-21T00:06:07;7.08;;;3.28;;
60641;SDS011;46837;52.446;-1.930;2023-05-21T00:07:07;7.24;;;3.44;;
60641;SDS011;46837;52.446;-1.930;2023-05-21T00:08:07;8.54;;;4.20;;
60641;SDS011;46837;52.446;-1.930;2023-05-21T00:09:07;8.22;;;3.70;;
60641;SDS011;46837;52.446;-1.930;2023-05-21T00:10:07;7.50;;;3.86;;
60641;SDS011;46837;52.446;-1.930;2023-05-21T00:11:07;9.28;;;3.72;;
60641;SDS011;46837;52.446;-1.930;2023-05-21T00:12:07;8.46;;;3.68;;
60641;SDS011;46837;52.446;-1.930;2023-05-21T00:13:07;6.38;;;4.02;;
60641;SDS011;46837;52.446;-1.930;2023-05-21T00:14:07;7.08;;;3.16;;
60641;SDS011;46837;52.446;-1.930;2023-05-21T00:15:07;10.02;;;3.64;;
60641;SDS011;46837;52.446;-1.930;2023-05-21T00:16:07;12.38;;;4.58;;
60641;SDS011;46837;52.446;-1.930;2023-05-21T00:17:07;7.56;;;3.90;;
60641;SDS011;46837;52.446;-1.930;2023-05-21T00:18:07;5.50;;;3.08;;
60641;SDS011;46837;52.446;-1.930;2023-05-21T00:19:07;7.62;;;3.52;;
60641;SDS011;46837;52.446;-1.930;2023-05-21T00:20:07;7.00;;;3.54;;
60641;SDS011;46837;52.446;-1.930;2023-05-21T00:21:07;12.80;;;3.42;;
60641;SDS011;46837;52.446;-1.930;2023-05-21T00:22:07;10.18;;;3.30;;
60641;SDS011;46837;52.446;-1.930;2023-05-21T00:23:07;5.64;;;3.62;;
60641;SDS011;46837;52.446;-1.930;2023-05-21T00:24:07;8.48;;;3.72;;
60641;SDS011;46837;52.446;-1.930;2023-05-21T00:25:07;9.52;;;4.12;;
60641;SDS011;46837;52.446;-1.930;2023-05-21T00:26:07;8.04;;;3.16;;
60641;SDS011;46837;52.446;-1.930;2023-05-21T00:27:07;6.46;;;4.30;;
60641;SDS011;46837;52.446;-1.930;2023-05-21T00:28:07;10.20;;;4.12;;
60641;SDS011;46837;52.446;-1.930;2023-05-21T00:29:07;7.48;;;3.94;;
60641;SDS011;46837;52.446;-1.930;2023-05-21T00:30:07;11.64;;;4.66;;
60641;SDS011;46837;52.446;-1.930;2023-05-21T00:31:07;14.40;;;7.88;;
60641;SDS011;46837;52.446;-1.930;2023-05-21T00:32:07;15.02;;;7.72;;
60641;SDS011;46837;52.446;-1.930;2023-05-21T00:33:07;12.18;;;4.92;;
60641;SDS011;46837;52.446;-1.930;2023-05-21T00:34:07;10.60;;;4.74;;
60641;SDS011;46837;52.446;-1.930;2023-05-21T00:35:07;9.10;;;4.04;;
60641;SDS011;46837;52.446;-1.930;2023-05-21T00:36:07;6.94;;;3.78;;
60641;SDS011;46837;52.446;-1.930;2023-05-21T00:37:07;9.48;;;3.72;;
60641;SDS011;46837;52.446;-1.930;2023-05-21T00:38:07;4.92;;;3.28;;
60641;SDS011;46837;52.446;-1.930;2023-05-21T00:39:07;4.44;;;2.86;;
60641;SDS011;46837;52.446;-1.930;2023-05-21T00:40:07;6.16;;;2.74;;
60641;SDS011;46837;52.446;-1.930;2023-05-21T00:41:07;10.56;;;3.54;;
60641;SDS011;46837;52.446;-1.930;2023-05-21T00:42:07;9.24;;;3.86;;
60641;SDS011;46837;52.446;-1.930;2023-05-21T00:43:07;9.04;;;3.04;;
60641;SDS011;46837;52.446;-1.930;2023-05-21T00:44:07;7.30;;;3.82;;
60641;SDS011;46837;52.446;-1.930;2023-05-21T00:45:07;7.12;;;3.34;;
60641;SDS011;46837;52.446;-1.930;2023-05-21T00:46:07;10.14;;;4.24;;
60641;SDS011;46837;52.446;-1.930;2023-05-21T00:47:07;8.10;;;3.68;;
60641;SDS011;46837;52.446;-1.930;2023-05-21T00:48:07;5.28;;;3.02;;
60641;SDS011;46837;52.446;-1.930;2023-05-21T00:49:07;8.02;;;3.98;;
60641;SDS011;46837;52.446;-1.930;2023-05-21T00:50:07;7.56;;;3.90;;
60641;SDS011;46837;52.446;-1.930;2023-05-21T00:51:07;8.04;;;3.38;;
60641;SDS011;46837;52.446;-1.930;2023-05-21T00:52:07;10.70;;;4.00;;
60641;SDS011;46837;52.446;-1.930;2023-05-21T00:53:09;6.06;;;2.98;;
60641;SDS011;46837;52.446;-1.930;2023-05-21T00:54:07;6.22;;;3.54;;
60641;SDS011;46837;52.446;-1.930;2023-05-21T00:55:07;6.28;;;3.20;;
60641;SDS011;46837;52.446;-1.930;2023-05-21T00:56:07;4.72;;;2.70;;
60641;SDS011;46837;52.446;-1.930;2023-05-21T00:57:07;8.36;;;2.90;;
60641;SDS011;46837;52.446;-1.930;2023-05-21T00:58:07;6.12;;;3.08;;
60641;SDS011;46837;52.446;-1.930;2023-05-21T00:59:07;9.82;;;4.84;;
60641;SDS011;46837;52.446;-1.930;2023-05-21T01:00:10;4.06;;;3.30;;
60641;SDS011;46837;52.446;-1.930;2023-05-21T01:01:07;6.82;;;3.18;;
60641;SDS011;46837;52.446;-1.930;2023-05-21T01:02:07;11.30;;;4.86;;
60641;SDS011;46837;52.446;-1.930;2023-05-21T01:03:07;8.90;;;4.14;;
60641;SDS011;46837;52.446;-1.930;2023-05-21T01:04:07;10.26;;;4.12;;
60641;SDS011;46837;52.446;-1.930;2023-05-21T01:05:07;6.36;;;3.84;;
60641;SDS011;46837;52.446;-1.930;2023-05-21T01:06:07;4.88;;;3.32;;
60641;SDS011;46837;52.446;-1.930;2023-05-21T01:07:07;10.36;;;3.80;;
60641;SDS011;46837;52.446;-1.930;2023-05-21T01:08:07;6.18;;;3.34;;
60641;SDS011;46837;52.446;-1.930;2023-05-21T01:09:07;10.12;;;4.06;;
60641;SDS011;46837;52.446;-1.930;2023-05-21T01:10:07;8.92;;;4.34;;
60641;SDS011;46837;52.446;-1.930;2023-05-21T01:11:07;10.12;;;3.52;;
60641;SDS011;46837;52.446;-1.930;2023-05-21T01:12:07;8.42;;;3.66;;
60641;SDS011;46837;52.446;-1.930;2023-05-21T01:13:07;5.24;;;2.98;;
60641;SDS011;46837;52.446;-1.930;2023-05-21T01:14:07;6.60;;;2.86;;
60641;SDS011;46837;52.446;-1.930;2023-05-21T01:15:07;5.84;;;3.16;;
60641;SDS011;46837;52.446;-1.930;2023-05-21T01:16:07;15.82;;;3.48;;
60641;SDS011;46837;52.446;-1.930;2023-05-21T01:17:07;8.58;;;3.54;;
60641;SDS011;46837;52.446;-1.930;2023-05-21T01:18:07;7.58;;;4.00;;
60641;SDS011;46837;52.446;-1.930;2023-05-21T01:19:07;5.66;;;3.14;;
60641;SDS011;46837;52.446;-1.930;2023-05-21T01:20:12;9.78;;;3.56;;
60641;SDS011;46837;52.446;-1.930;2023-05-21T01:21:07;8.86;;;4.02;;
60641;SDS011;46837;52.446;-1.930;2023-05-21T01:22:07;8.64;;;3.54;;
60641;SDS011;46837;52.446;-1.930;2023-05-21T01:23:07;7.00;;;3.20;;
60641;SDS011;46837;52.446;-1.930;2023-05-21T01:24:07;6.76;;;4.22;;
60641;SDS011;46837;52.446;-1.930;2023-05-21T01:25:07;7.92;;;2.96;;
60641;SDS011;46837;52.446;-1.930;2023-05-21T01:26:07;13.54;;;3.44;;
60641;SDS011;46837;52.446;-1.930;2023-05-21T01:27:07;9.62;;;2.98;;
60641;SDS011;46837;52.446;-1.930;2023-05-21T01:28:07;4.66;;;2.98;;
60641;SDS011;46837;52.446;-1.930;2023-05-21T01:29:11;11.14;;;3.44;;
60641;SDS011;46837;52.446;-1.930;2023-05-21T01:30:07;10.20;;;4.50;;
60641;SDS011;46837;52.446;-1.930;2023-05-21T01:31:12;7.22;;;3.60;;
60641;SDS011;46837;52.446;-1.930;2023-05-21T01:33:10;8.56;;;3.00;;
60641;SDS011;46837;52.446;-1.930;2023-05-21T01:34:07;5.72;;;3.20;;
60641;SDS011;46837;52.446;-1.930;2023-05-21T01:35:08;7.82;;;3.88;;
60641;SDS011;46837;52.446;-1.930;2023-05-21T01:37:16;10.62;;;3.82;;
60641;SDS011;46837;52.446;-1.930;2023-05-21T01:39:16;8.54;;;3.22;;
60641;SDS011;46837;52.446;-1.930;2023-05-21T01:40:11;10.04;;;3.16;;
60641;SDS011;46837;52.446;-1.930;2023-05-21T01:41:09;8.94;;;3.78;;
60641;SDS011;46837;52.446;-1.930;2023-05-21T01:42:08;11.80;;;4.16;;
60641;SDS011;46837;52.446;-1.930;2023-05-21T01:43:07;10.06;;;3.96;;
60641;SDS011;46837;52.446;-1.930;2023-05-21T01:44:07;9.90;;;5.56;;
60641;SDS011;46837;52.446;-1.930;2023-05-21T01:45:07;13.16;;;4.28;;
60641;SDS011;46837;52.446;-1.930;2023-05-21T01:46:08;7.54;;;2.66;;
60641;SDS011;46837;52.446;-1.930;2023-05-21T01:47:07;8.54;;;3.40;;
60641;SDS011;46837;52.446;-1.930;2023-05-21T01:48:07;9.24;;;3.62;;
60641;SDS011;46837;52.446;-1.930;2023-05-21T01:49:07;13.12;;;3.32;;
60641;SDS011;46837;52.446;-1.930;2023-05-21T01:50:07;14.14;;;4.50;;
60641;SDS011;46837;52.446;-1.930;2023-05-21T01:51:07;14.40;;;3.96;;
60641;SDS011;46837;52.446;-1.930;2023-05-21T01:52:07;14.08;;;3.66;;
60641;SDS011;46837;52.446;-1.930;2023-05-21T01:53:07;13.38;;;3.76;;
60641;SDS011;46837;52.446;-1.930;2023-05-21T01:54:07;8.38;;;3.64;;
60641;SDS011;46837;52.446;-1.930;2023-05-21T01:55:07;7.68;;;3.38;;
60641;SDS011;46837;52.446;-1.930;2023-05-21T01:56:07;15.98;;;4.38;;
60641;SDS011;46837;52.446;-1.930;2023-05-21T01:57:07;9.16;;;2.84;;
60641;SDS011;46837;52.446;-1.930;2023-05-21T01:58:07;7.64;;;3.34;;
60641;SDS011;46837;52.446;-1.930;2023-05-21T01:59:07;13.62;;;4.58;;
60641;SDS011;46837;52.446;-1.930;2023-05-21T02:00:07;9.42;;;3.30;;
60641;SDS011;46837;52.446;-1.930;2023-05-21T02:01:07;10.50;;;3.28;;
60641;SDS011;46837;52.446;-1.930;2023-05-21T02:02:07;12.52;;;3.94;;
60641;SDS011;46837;52.446;-1.930;2023-05-21T02:03:07;13.44;;;4.52;;
60641;SDS011;46837;52.446;-1.930;2023-05-21T02:04:07;10.24;;;3.84;;
60641;SDS011;46837;52.446;-1.930;2023-05-21T02:05:07;13.80;;;3.06;;
60641;SDS011;46837;52.446;-1.930;2023-05-21T02:06:07;14.62;;;3.62;;
60641;SDS011;46837;52.446;-1.930;2023-05-21T02:07:07;7.02;;;3.44;;
60641;SDS011;46837;52.446;-1.930;2023-05-21T02:08:08;9.98;;;3.58;;
60641;SDS011;46837;52.446;-1.930;2023-05-21T02:09:07;7.70;;;3.28;;
60641;SDS011;46837;52.446;-1.930;2023-05-21T02:10:07;9.32;;;3.82;;
60641;SDS011;46837;52.446;-1.930;2023-05-21T02:11:07;6.04;;;3.30;;
60641;SDS011;46837;52.446;-1.930;2023-05-21T02:12:07;12.16;;;3.62;;
60641;SDS011;46837;52.446;-1.930;2023-05-21T02:13:07;7.04;;;3.60;;
60641;SDS011;46837;52.446;-1.930;2023-05-21T02:14:07;10.34;;;3.50;;
60641;SDS011;46837;52.446;-1.930;2023-05-21T02:15:07;11.32;;;3.70;;
60641;SDS011;46837;52.446;-1.930;2023-05-21T02:16:09;8.64;;;4.56;;
60641;SDS011;46837;52.446;-1.930;2023-05-21T02:17:07;8.28;;;3.26;;
60641;SDS011;46837;52.446;-1.930;2023-05-21T02:18:07;6.66;;;3.44;;
60641;SDS011;46837;52.446;-1.930;2023-05-21T02:19:07;14.96;;;5.26;;
60641;SDS011;46837;52.446;-1.930;2023-05-21T02:20:11;9.50;;;3.68;;
60641;SDS011;46837;52.446;-1.930;2023-05-21T02:21:07;9.18;;;4.40;;
60641;SDS011;46837;52.446;-1.930;2023-05-21T02:22:07;10.70;;;3.56;;
60641;SDS011;46837;52.446;-1.930;2023-05-21T02:23:07;8.90;;;3.38;;
60641;SDS011;46837;52.446;-1.930;2023-05-21T02:24:07;8.66;;;3.72;;
60641;SDS011;46837;52.446;-1.930;2023-05-21T02:25:07;10.32;;;3.42;;
60641;SDS011;46837;52.446;-1.930;2023-05-21T02:26:07;12.08;;;3.90;;
60641;SDS011;46837;52.446;-1.930;2023-05-21T02:27:07;9.68;;;3.78;;
60641;SDS011;46837;52.446;-1.930;2023-05-21T02:28:07;10.52;;;3.72;;
60641;SDS011;46837;52.446;-1.930;2023-05-21T02:29:07;11.94;;;3.38;;
60641;SDS011;46837;52.446;-1.930;2023-05-21T02:30:07;12.60;;;4.28;;
60641;SDS011;46837;52.446;-1.930;2023-05-21T02:31:07;4.26;;;2.58;;
60641;SDS011;46837;52.446;-1.930;2023-05-21T02:32:07;9.26;;;4.12;;
60641;SDS011;46837;52.446;-1.930;2023-05-21T02:33:08;10.20;;;3.46;;
60641;SDS011;46837;52.446;-1.930;2023-05-21T02:34:07;30.68;;;4.42;;
60641;SDS011;46837;52.446;-1.930;2023-05-21T02:35:07;8.20;;;3.96;;
60641;SDS011;46837;52.446;-1.930;2023-05-21T02:36:07;11.76;;;4.36;;
60641;SDS011;46837;52.446;-1.930;2023-05-21T02:37:07;13.52;;;4.84;;
60641;SDS011;46837;52.446;-1.930;2023-05-21T02:38:07;8.32;;;4.12;;
60641;SDS011;46837;52.446;-1.930;2023-05-21T02:39:07;7.56;;;3.22;;
60641;SDS011;46837;52.446;-1.930;2023-05-21T02:40:07;9.16;;;3.90;;
60641;SDS011;46837;52.446;-1.930;2023-05-21T02:41:07;11.14;;;3.82;;
60641;SDS011;46837;52.446;-1.930;2023-05-21T02:42:07;14.78;;;4.04;;
60641;SDS011;46837;52.446;-1.930;2023-05-21T02:43:07;6.56;;;2.66;;
60641;SDS011;46837;52.446;-1.930;2023-05-21T02:44:07;12.88;;;3.82;;
60641;SDS011;46837;52.446;-1.930;2023-05-21T02:45:10;7.68;;;3.76;;
60641;SDS011;46837;52.446;-1.930;2023-05-21T02:46:07;6.84;;;3.56;;
60641;SDS011;46837;52.446;-1.930;2023-05-21T02:47:08;11.02;;;4.18;;
60641;SDS011;46837;52.446;-1.930;2023-05-21T02:48:07;9.24;;;3.56;;
60641;SDS011;46837;52.446;-1.930;2023-05-21T02:49:07;10.50;;;3.34;;
60641;SDS011;46837;52.446;-1.930;2023-05-21T02:50:07;6.96;;;3.30;;
60641;SDS011;46837;52.446;-1.930;2023-05-21T02:51:07;13.82;;;4.26;;
60641;SDS011;46837;52.446;-1.930;2023-05-21T02:52:07;8.78;;;4.20;;
60641;SDS011;46837;52.446;-1.930;2023-05-21T02:53:07;7.32;;;3.30;;
60641;SDS011;46837;52.446;-1.930;2023-05-21T02:54:07;8.44;;;3.60;;
60641;SDS011;46837;52.446;-1.930;2023-05-21T02:55:07;10.62;;;3.84;;
60641;SDS011;46837;52.446;-1.930;2023-05-21T02:56:07;16.78;;;3.98;;
60641;SDS011;46837;52.446;-1.930;2023-05-21T02:57:07;9.32;;;4.02;;
60641;SDS011;46837;52.446;-1.930;2023-05-21T02:58:07;11.84;;;3.84;;
60641;SDS011;46837;52.446;-1.930;2023-05-21T02:59:07;7.42;;;3.18;;
60641;SDS011;46837;52.446;-1.930;2023-05-21T03:00:07;10.76;;;4.58;;
60641;SDS011;46837;52.446;-1.930;2023-05-21T03:01:07;13.22;;;4.20;;
60641;SDS011;46837;52.446;-1.930;2023-05-21T03:02:07;8.30;;;3.30;;
60641;SDS011;46837;52.446;-1.930;2023-05-21T03:03:07;10.48;;;4.02;;
60641;SDS011;46837;52.446;-1.930;2023-05-21T03:04:07;7.20;;;4.02;;
60641;SDS011;46837;52.446;-1.930;2023-05-21T03:05:07;9.20;;;3.34;;
60641;SDS011;46837;52.446;-1.930;2023-05-21T03:06:07;4.84;;;3.38;;
60641;SDS011;46837;52.446;-1.930;2023-05-21T03:07:07;6.38;;;4.36;;
60641;SDS011;46837;52.446;-1.930;2023-05-21T03:08:07;5.88;;;4.08;;
60641;SDS011;46837;52.446;-1.930;2023-05-21T03:09:07;7.74;;;3.66;;
60641;SDS011;46837;52.446;-1.930;2023-05-21T03:10:07;9.72;;;4.34;;
60641;SDS011;46837;52.446;-1.930;2023-05-21T03:11:07;6.40;;;3.74;;
60641;SDS011;46837;52.446;-1.930;2023-05-21T03:12:07;7.70;;;3.62;;
60641;SDS011;46837;52.446;-1.930;2023-05-21T03:13:07;12.50;;;4.14;;
60641;SDS011;46837;52.446;-1.930;2023-05-21T03:14:07;9.86;;;4.98;;
60641;SDS011;46837;52.446;-1.930;2023-05-21T03:15:07;6.96;;;4.74;;
60641;SDS011;46837;52.446;-1.930;2023-05-21T03:16:07;8.64;;;4.40;;
60641;SDS011;46837;52.446;-1.930;2023-05-21T03:17:07;8.64;;;4.62;;
60641;SDS011;46837;52.446;-1.930;2023-05-21T03:18:07;8.08;;;4.02;;
60641;SDS011;46837;52.446;-1.930;2023-05-21T03:19:07;14.22;;;4.34;;
60641;SDS011;46837;52.446;-1.930;2023-05-21T03:20:07;9.22;;;4.76;;
60641;SDS011;46837;52.446;-1.930;2023-05-21T03:21:07;11.08;;;3.78;;
60641;SDS011;46837;52.446;-1.930;2023-05-21T03:22:07;7.14;;;4.44;;
60641;SDS011;46837;52.446;-1.930;2023-05-21T03:23:07;8.42;;;4.20;;
60641;SDS011;46837;52.446;-1.930;2023-05-21T03:24:07;7.22;;;4.50;;
60641;SDS011;46837;52.446;-1.930;2023-05-21T03:25:07;14.88;;;4.58;;
60641;SDS011;46837;52.446;-1.930;2023-05-21T03:26:07;6.46;;;3.82;;
60641;SDS011;46837;52.446;-1.930;2023-05-21T03:27:07;11.62;;;4.78;;
60641;SDS011;46837;52.446;-1.930;2023-05-21T03:28:07;11.02;;;4.50;;
60641;SDS011;46837;52.446;-1.930;2023-05-21T03:29:07;11.80;;;4.58;;
60641;SDS011;46837;52.446;-1.930;2023-05-21T03:30:07;11.60;;;4.44;;
60641;SDS011;46837;52.446;-1.930;2023-05-21T03:31:07;13.20;;;5.54;;
60641;SDS011;46837;52.446;-1.930;2023-05-21T03:32:07;6.88;;;4.12;;
60641;SDS011;46837;52.446;-1.930;2023-05-21T03:33:07;11.94;;;4.08;;
60641;SDS011;46837;52.446;-1.930;2023-05-21T03:34:08;9.56;;;4.34;;
60641;SDS011;46837;52.446;-1.930;2023-05-21T03:35:07;9.04;;;4.52;;
60641;SDS011;46837;52.446;-1.930;2023-05-21T03:36:07;9.32;;;4.22;;
60641;SDS011;46837;52.446;-1.930;2023-05-21T03:37:07;7.92;;;3.92;;
60641;SDS011;46837;52.446;-1.930;2023-05-21T03:38:07;12.86;;;5.62;;
60641;SDS011;46837;52.446;-1.930;2023-05-21T03:39:07;10.90;;;4.42;;
60641;SDS011;46837;52.446;-1.930;2023-05-21T03:40:07;8.86;;;4.00;;
60641;SDS011;46837;52.446;-1.930;2023-05-21T03:41:07;9.64;;;4.50;;
60641;SDS011;46837;52.446;-1.930;2023-05-21T03:42:07;9.26;;;5.34;;
60641;SDS011;46837;52.446;-1.930;2023-05-21T03:43:07;10.00;;;5.24;;
60641;SDS011;46837;52.446;-1.930;2023-05-21T03:44:07;11.16;;;4.68;;
60641;SDS011;46837;52.446;-1.930;2023-05-21T03:45:07;9.12;;;3.66;;
60641;SDS011;46837;52.446;-1.930;2023-05-21T03:46:07;7.70;;;4.40;;
60641;SDS011;46837;52.446;-1.930;2023-05-21T03:47:07;12.72;;;4.46;;
60641;SDS011;46837;52.446;-1.930;2023-05-21T03:48:07;7.76;;;3.66;;
60641;SDS011;46837;52.446;-1.930;2023-05-21T03:49:07;6.06;;;3.48;;
60641;SDS011;46837;52.446;-1.930;2023-05-21T03:50:08;9.14;;;3.60;;
60641;SDS011;46837;52.446;-1.930;2023-05-21T03:51:07;7.86;;;4.18;;
60641;SDS011;46837;52.446;-1.930;2023-05-21T03:52:07;9.24;;;3.88;;
60641;SDS011;46837;52.446;-1.930;2023-05-21T03:53:07;10.36;;;4.38;;
60641;SDS011;46837;52.446;-1.930;2023-05-21T03:54:07;11.18;;;4.10;;
60641;SDS011;46837;52.446;-1.930;2023-05-21T03:55:07;10.84;;;4.04;;
60641;SDS011;46837;52.446;-1.930;2023-05-21T03:56:07;11.38;;;4.02;;
60641;SDS011;46837;52.446;-1.930;2023-05-21T03:57:07;6.58;;;3.78;;
60641;SDS011;46837;52.446;-1.930;2023-05-21T03:58:07;4.16;;;3.22;;
60641;SDS011;46837;52.446;-1.930;2023-05-21T03:59:07;12.86;;;5.98;;
60641;SDS011;46837;52.446;-1.930;2023-05-21T04:00:07;10.10;;;4.18;;
60641;SDS011;46837;52.446;-1.930;2023-05-21T04:01:07;7.54;;;4.14;;
60641;SDS011;46837;52.446;-1.930;2023-05-21T04:02:07;9.72;;;3.68;;
60641;SDS011;46837;52.446;-1.930;2023-05-21T04:03:07;11.00;;;4.68;;
60641;SDS011;46837;52.446;-1.930;2023-05-21T04:04:07;7.98;;;3.90;;
60641;SDS011;46837;52.446;-1.930;2023-05-21T04:05:07;12.42;;;4.26;;
60641;SDS011;46837;52.446;-1.930;2023-05-21T04:06:07;12.12;;;4.32;;
60641;SDS011;46837;52.446;-1.930;2023-05-21T04:07:10;9.38;;;5.44;;
60641;SDS011;46837;52.446;-1.930;2023-05-21T04:08:07;11.94;;;4.12;;
60641;SDS011;46837;52.446;-1.930;2023-05-21T04:09:07;10.76;;;4.80;;
60641;SDS011;46837;52.446;-1.930;2023-05-21T04:10:07;12.64;;;5.04;;
60641;SDS011;46837;52.446;-1.930;2023-05-21T04:11:07;8.42;;;4.36;;
60641;SDS011;46837;52.446;-1.930;2023-05-21T04:12:07;11.82;;;5.30;;
60641;SDS011;46837;52.446;-1.930;2023-05-21T04:13:07;11.56;;;5.16;;
60641;SDS011;46837;52.446;-1.930;2023-05-21T04:14:07;13.12;;;5.10;;
60641;SDS011;46837;52.446;-1.930;2023-05-21T04:15:07;8.86;;;5.34;;
60641;SDS011;46837;52.446;-1.930;2023-05-21T04:16:08;10.40;;;4.88;;
60641;SDS011;46837;52.446;-1.930;2023-05-21T04:17:07;15.78;;;4.88;;
60641;SDS011;46837;52.446;-1.930;2023-05-21T04:18:07;12.88;;;5.68;;
60641;SDS011;46837;52.446;-1.930;2023-05-21T04:19:07;9.24;;;4.40;;
60641;SDS011;46837;52.446;-1.930;2023-05-21T04:20:07;15.44;;;5.20;;
60641;SDS011;46837;52.446;-1.930;2023-05-21T04:21:07;8.48;;;4.58;;
60641;SDS011;46837;52.446;-1.930;2023-05-21T04:22:08;13.16;;;6.72;;
60641;SDS011;46837;52.446;-1.930;2023-05-21T04:23:07;11.44;;;4.60;;
60641;SDS011;46837;52.446;-1.930;2023-05-21T04:24:07;9.32;;;4.26;;
60641;SDS011;46837;52.446;-1.930;2023-05-21T04:25:07;8.16;;;4.86;;
60641;SDS011;46837;52.446;-1.930;2023-05-21T04:26:07;12.66;;;4.48;;
60641;SDS011;46837;52.446;-1.930;2023-05-21T04:27:07;8.08;;;5.04;;
60641;SDS011;46837;52.446;-1.930;2023-05-21T04:28:07;8.74;;;4.40;;
60641;SDS011;46837;52.446;-1.930;2023-05-21T04:29:07;11.42;;;4.88;;
60641;SDS011;46837;52.446;-1.930;2023-05-21T04:30:07;8.46;;;5.02;;
60641;SDS011;46837;52.446;-1.930;2023-05-21T04:31:08;10.46;;;4.44;;
60641;SDS011;46837;52.446;-1.930;2023-05-21T04:32:07;9.44;;;4.64;;
60641;SDS011;46837;52.446;-1.930;2023-05-21T04:33:07;8.26;;;5.04;;
60641;SDS011;46837;52.446;-1.930;2023-05-21T04:34:07;8.36;;;5.12;;
60641;SDS011;46837;52.446;-1.930;2023-05-21T04:35:07;9.06;;;4.50;;
60641;SDS011;46837;52.446;-1.930;2023-05-21T04:36:07;10.18;;;4.42;;
60641;SDS011;46837;52.446;-1.930;2023-05-21T04:37:07;10.80;;;4.98;;
60641;SDS011;46837;52.446;-1.930;2023-05-21T04:38:07;15.08;;;5.26;;
60641;SDS011;46837;52.446;-1.930;2023-05-21T04:39:07;8.62;;;5.20;;
60641;SDS011;46837;52.446;-1.930;2023-05-21T04:40:07;14.58;;;5.36;;
60641;SDS011;46837;52.446;-1.930;2023-05-21T04:41:07;11.18;;;4.84;;
60641;SDS011;46837;52.446;-1.930;2023-05-21T04:42:07;6.26;;;4.22;;
60641;SDS011;46837;52.446;-1.930;2023-05-21T04:43:07;10.18;;;4.90;;
60641;SDS011;46837;52.446;-1.930;2023-05-21T04:44:07;8.66;;;4.28;;
60641;SDS011;46837;52.446;-1.930;2023-05-21T04:45:07;8.84;;;4.60;;
60641;SDS011;46837;52.446;-1.930;2023-05-21T04:46:07;7.52;;;4.60;;
60641;SDS011;46837;52.446;-1.930;2023-05-21T04:47:07;11.34;;;4.68;;
60641;SDS011;46837;52.446;-1.930;2023-05-21T04:48:07;13.14;;;5.18;;
60641;SDS011;46837;52.446;-1.930;2023-05-21T04:49:07;11.50;;;5.10;;
60641;SDS011;46837;52.446;-1.930;2023-05-21T04:50:07;9.92;;;5.06;;
60641;SDS011;46837;52.446;-1.930;2023-05-21T04:51:07;10.34;;;4.64;;
60641;SDS011;46837;52.446;-1.930;2023-05-21T04:52:07;10.64;;;5.60;;
60641;SDS011;46837;52.446;-1.930;2023-05-21T04:53:07;10.34;;;5.60;;
60641;SDS011;46837;52.446;-1.930;2023-05-21T04:54:07;11.34;;;5.24;;
60641;SDS011;46837;52.446;-1.930;2023-05-21T04:55:07;7.94;;;4.88;;
60641;SDS011;46837;52.446;-1.930;2023-05-21T04:56:07;14.44;;;5.34;;
60641;SDS011;46837;52.446;-1.930;2023-05-21T04:57:07;8.56;;;5.52;;
60641;SDS011;46837;52.446;-1.930;2023-05-21T04:58:07;19.34;;;7.18;;
60641;SDS011;46837;52.446;-1.930;2023-05-21T04:59:07;9.64;;;5.40;;
60641;SDS011;46837;52.446;-1.930;2023-05-21T05:00:07;10.22;;;4.66;;
60641;SDS011;46837;52.446;-1.930;2023-05-21T05:01:07;9.80;;;4.64;;
60641;SDS011;46837;52.446;-1.930;2023-05-21T05:02:07;13.08;;;5.20;;
60641;SDS011;46837;52.446;-1.930;2023-05-21T05:03:07;8.88;;;4.88;;
60641;SDS011;46837;52.446;-1.930;2023-05-21T05:04:07;11.00;;;4.70;;
60641;SDS011;46837;52.446;-1.930;2023-05-21T05:05:07;15.92;;;5.20;;
60641;SDS011;46837;52.446;-1.930;2023-05-21T05:06:07;9.80;;;4.86;;
60641;SDS011;46837;52.446;-1.930;2023-05-21T05:07:07;10.50;;;5.76;;
60641;SDS011;46837;52.446;-1.930;2023-05-21T05:08:07;16.58;;;5.60;;
60641;SDS011;46837;52.446;-1.930;2023-05-21T05:09:07;14.22;;;5.92;;
60641;SDS011;46837;52.446;-1.930;2023-05-21T05:10:07;10.68;;;5.20;;
60641;SDS011;46837;52.446;-1.930;2023-05-21T05:11:07;10.64;;;4.74;;
60641;SDS011;46837;52.446;-1.930;2023-05-21T05:12:07;8.22;;;4.54;;
60641;SDS011;46837;52.446;-1.930;2023-05-21T05:13:07;8.04;;;4.86;;
60641;SDS011;46837;52.446;-1.930;2023-05-21T05:14:07;11.10;;;5.10;;
60641;SDS011;46837;52.446;-1.930;2023-05-21T05:15:07;11.54;;;6.46;;
60641;SDS011;46837;52.446;-1.930;2023-05-21T05:16:07;10.54;;;5.48;;
60641;SDS011;46837;52.446;-1.930;2023-05-21T05:17:07;10.54;;;6.32;;
60641;SDS011;46837;52.446;-1.930;2023-05-21T05:18:07;11.32;;;5.92;;
60641;SDS011;46837;52.446;-1.930;2023-05-21T05:19:07;16.02;;;6.24;;
60641;SDS011;46837;52.446;-1.930;2023-05-21T05:20:07;17.02;;;6.62;;
60641;SDS011;46837;52.446;-1.930;2023-05-21T05:21:07;18.74;;;5.68;;
60641;SDS011;46837;52.446;-1.930;2023-05-21T05:22:07;11.06;;;5.48;;
60641;SDS011;46837;52.446;-1.930;2023-05-21T05:23:07;14.02;;;6.54;;
60641;SDS011;46837;52.446;-1.930;2023-05-21T05:24:07;11.44;;;6.30;;
60641;SDS011;46837;52.446;-1.930;2023-05-21T05:25:07;13.16;;;6.04;;
60641;SDS011;46837;52.446;-1.930;2023-05-21T05:26:07;14.90;;;6.94;;
60641;SDS011;46837;52.446;-1.930;2023-05-21T05:27:07;13.56;;;6.10;;
60641;SDS011;46837;52.446;-1.930;2023-05-21T05:28:07;13.52;;;5.80;;
60641;SDS011;46837;52.446;-1.930;2023-05-21T05:29:07;12.38;;;6.62;;
60641;SDS011;46837;52.446;-1.930;2023-05-21T05:30:07;13.28;;;6.96;;
60641;SDS011;46837;52.446;-1.930;2023-05-21T05:31:07;12.46;;;6.44;;
60641;SDS011;46837;52.446;-1.930;2023-05-21T05:32:07;11.30;;;6.96;;
60641;SDS011;46837;52.446;-1.930;2023-05-21T05:33:07;7.82;;;5.82;;
60641;SDS011;46837;52.446;-1.930;2023-05-21T05:34:07;13.86;;;6.92;;
60641;SDS011;46837;52.446;-1.930;2023-05-21T05:35:07;16.20;;;6.58;;
60641;SDS011;46837;52.446;-1.930;2023-05-21T05:36:07;15.90;;;8.38;;
60641;SDS011;46837;52.446;-1.930;2023-05-21T05:37:07;13.96;;;6.26;;
60641;SDS011;46837;52.446;-1.930;2023-05-21T05:38:07;11.06;;;6.54;;
60641;SDS011;46837;52.446;-1.930;2023-05-21T05:39:07;14.62;;;5.80;;
60641;SDS011;46837;52.446;-1.930;2023-05-21T05:40:07;15.20;;;6.68;;
60641;SDS011;46837;52.446;-1.930;2023-05-21T05:41:07;15.10;;;6.84;;
60641;SDS011;46837;52.446;-1.930;2023-05-21T05:42:07;13.36;;;6.46;;
60641;SDS011;46837;52.446;-1.930;2023-05-21T05:43:07;16.66;;;7.14;;
60641;SDS011;46837;52.446;-1.930;2023-05-21T05:44:07;17.50;;;7.08;;
60641;SDS011;46837;52.446;-1.930;2023-05-21T05:45:07;15.34;;;7.50;;
60641;SDS011;46837;52.446;-1.930;2023-05-21T05:46:07;13.06;;;6.80;;
60641;SDS011;46837;52.446;-1.930;2023-05-21T05:47:10;16.86;;;7.44;;
60641;SDS011;46837;52.446;-1.930;2023-05-21T05:48:07;9.38;;;6.12;;
60641;SDS011;46837;52.446;-1.930;2023-05-21T05:49:07;12.60;;;6.14;;
60641;SDS011;46837;52.446;-1.930;2023-05-21T05:50:07;15.32;;;8.22;;
60641;SDS011;46837;52.446;-1.930;2023-05-21T05:51:07;16.76;;;6.64;;
60641;SDS011;46837;52.446;-1.930;2023-05-21T05:52:07;14.54;;;6.26;;
60641;SDS011;46837;52.446;-1.930;2023-05-21T05:53:07;10.62;;;6.26;;
60641;SDS011;46837;52.446;-1.930;2023-05-21T05:54:07;14.04;;;6.78;;
60641;SDS011;46837;52.446;-1.930;2023-05-21T05:55:08;13.10;;;6.92;;
60641;SDS011;46837;52.446;-1.930;2023-05-21T05:56:07;16.06;;;6.44;;